createdAt,value
2019-04-03T00:15:51.288Z,8.00
2019-04-03T00:30:52.959Z,8.75
2019-04-03T00:45:54.021Z,7.25
2019-04-03T01:00:54.737Z,7.78
2019-04-03T01:15:50.522Z,8.15
2019-04-03T01:30:54.536Z,7.40
2019-04-03T01:45:51.772Z,8.68
2019-04-03T02:00:52.706Z,6.92
2019-04-03T02:15:52.475Z,7.53
2019-04-03T02:30:50.554Z,7.53
2019-04-03T02:45:51.414Z,6.87
2019-04-03T03:00:57.496Z,6.78
2019-04-03T03:15:51.214Z,8.50
2019-04-03T03:30:59.673Z,8.10
2019-04-03T03:45:54.868Z,8.33
2019-04-03T04:00:52.960Z,7.78
2019-04-03T04:15:51.622Z,7.20
2019-04-03T04:30:57.403Z,9.13
2019-04-03T04:45:53.427Z,8.08
2019-04-03T05:00:53.321Z,9.00
2019-04-03T05:15:54.672Z,8.95
2019-04-03T05:30:51.150Z,8.85
2019-04-03T05:45:53.587Z,10.20
2019-04-03T06:01:02.870Z,9.15
2019-04-03T06:15:52.979Z,9.55
2019-04-03T06:30:51.637Z,8.10
2019-04-03T06:45:51.785Z,8.80
2019-04-03T07:00:54.112Z,9.40
2019-04-03T07:15:55.953Z,9.45
2019-04-03T07:30:53.589Z,9.28
2019-04-03T07:45:51.903Z,10.03
2019-04-03T08:00:55.725Z,9.60
2019-04-03T08:15:50.793Z,9.20
2019-04-03T08:30:50.666Z,10.08
2019-04-03T08:45:51.019Z,10.00
2019-04-03T09:00:51.073Z,10.20
2019-04-03T09:15:51.119Z,10.53
2019-04-03T09:30:53.818Z,9.55
2019-04-03T09:45:51.633Z,9.83
2019-04-03T10:00:54.245Z,9.28
2019-04-03T10:15:51.096Z,9.90
2019-04-03T10:30:52.835Z,9.85
2019-04-03T10:45:50.513Z,9.50
2019-04-03T11:00:50.512Z,9.03
2019-04-03T11:15:54.676Z,9.23
2019-04-03T11:30:53.030Z,10.15
2019-04-03T11:45:50.563Z,9.23
2019-04-03T12:00:52.433Z,9.63
2019-04-03T12:15:53.519Z,9.50
2019-04-03T12:30:50.537Z,8.55
2019-04-03T12:45:51.229Z,10.30
2019-04-03T13:00:51.153Z,9.65
2019-04-03T13:15:51.117Z,9.58
2019-04-03T13:30:50.648Z,10.78
2019-04-03T13:45:51.275Z,10.10
2019-04-03T14:00:59.025Z,9.75
2019-04-03T14:15:50.374Z,10.65
2019-04-03T14:30:51.839Z,9.90
2019-04-03T14:45:51.688Z,11.60
2019-04-03T15:00:54.310Z,9.90
2019-04-03T15:15:51.559Z,9.75
2019-04-03T15:30:51.018Z,11.35
2019-04-03T15:45:58.056Z,11.90
2019-04-03T16:00:50.497Z,13.50
2019-04-03T16:15:55.225Z,12.88
2019-04-03T16:30:56.984Z,12.73
2019-04-03T16:45:51.315Z,14.10
2019-04-03T17:00:51.330Z,14.33
2019-04-03T17:15:57.362Z,13.90
2019-04-03T17:30:52.710Z,11.35
2019-04-03T18:00:52.074Z,10.65
2019-04-03T18:15:51.150Z,10.50
2019-04-03T18:30:51.344Z,11.80
2019-04-03T18:45:55.889Z,11.05
2019-04-03T19:00:53.989Z,10.70
2019-04-03T19:15:57.130Z,10.35
2019-04-03T19:30:50.493Z,9.75
2019-04-03T19:45:57.870Z,8.73
2019-04-03T20:00:53.788Z,9.05
2019-04-03T20:15:53.823Z,8.30
2019-04-03T20:30:50.671Z,8.60
2019-04-03T20:45:51.072Z,7.78
2019-04-03T21:01:06.134Z,7.10
2019-04-03T21:30:57.768Z,6.95
2019-04-03T21:45:51.190Z,6.35
2019-04-03T22:15:57.295Z,6.20
2019-04-03T22:30:58.233Z,5.70
2019-04-03T22:45:51.783Z,6.25
2019-04-03T23:00:57.244Z,5.15
2019-04-03T23:15:55.991Z,5.50
2019-04-03T23:30:50.976Z,4.40
2019-04-03T23:45:50.691Z,5.25
